Terminal Aerodrome Forecast
Issued by NWS

Current Version | Previous Version | Text Only | Print | Product List | Glossary On
Versions: 1 2 3 4 5 6 7 8 9 10 11 12 13 14 15 16 17
000
FTUS41 KBTV 211120
TAFSLK
TAF
KSLK 211120Z 2112/2212 24005KT P6SM -SHRA SCT006 OVC012
      TEMPO 2112/2115 5SM -SHRA BR OVC006
     FM211500 24007KT 5SM BR OVC025
     FM211800 24010G16KT P6SM BKN035
     FM212000 23011G22KT P6SM SCT100
     FM212300 22005KT P6SM FEW200=

USA.gov is the U.S. government's official web portal to all federal, state and local government web resources and services.